createdAt,value
2022-09-12T00:00:23.022Z,97136.16
2022-09-12T00:05:16.393Z,97137.75
2022-09-12T00:10:11.344Z,97122.47
2022-09-12T00:15:05.552Z,97122.81
2022-09-12T00:19:59.060Z,97125.66
2022-09-12T00:24:52.290Z,97125.41
2022-09-12T00:29:46.980Z,97128.25
2022-09-12T00:34:40.265Z,97130.50
2022-09-12T00:39:33.538Z,97121.31
2022-09-12T00:44:51.703Z,97125.59
2022-09-12T00:49:50.927Z,97110.22
2022-09-12T00:54:51.133Z,97096.22
2022-09-12T00:59:51.645Z,97095.13
2022-09-12T01:04:47.631Z,97086.47
2022-09-12T01:09:43.386Z,97079.72
2022-09-12T01:14:37.050Z,97077.13
2022-09-12T01:20:11.283Z,97082.53
2022-09-12T01:25:21.571Z,97081.19
2022-09-12T01:30:31.262Z,97076.31
2022-09-12T01:35:33.616Z,97068.56
2022-09-12T01:40:36.173Z,97077.84
2022-09-12T01:45:40.356Z,97069.47
2022-09-12T01:50:41.212Z,97067.91
2022-09-12T01:55:43.190Z,97070.16
2022-09-12T02:00:48.147Z,97058.50
2022-09-12T02:05:48.462Z,97057.88
2022-09-12T02:10:50.668Z,97056.16
2022-09-12T02:15:50.571Z,97049.72
2022-09-12T02:20:48.862Z,97039.31
2022-09-12T02:25:47.462Z,97045.69
2022-09-12T02:30:54.179Z,97030.78
2022-09-12T02:35:55.146Z,97034.78
2022-09-12T02:40:48.569Z,97029.59
2022-09-12T02:45:42.255Z,97031.09
2022-09-12T02:50:38.449Z,97031.91
2022-09-12T02:55:33.338Z,97025.06
2022-09-12T03:00:28.327Z,97024.22
2022-09-12T03:05:30.095Z,97032.56
2022-09-12T03:10:34.118Z,97031.91
2022-09-12T03:15:49.776Z,97020.31
2022-09-12T03:20:54.694Z,97027.69
2022-09-12T03:25:57.183Z,97024.53
2022-09-12T03:30:54.280Z,97016.44
2022-09-12T03:35:49.666Z,97010.69
2022-09-12T03:40:43.139Z,97012.97
2022-09-12T03:45:38.479Z,97018.81
2022-09-12T03:50:31.820Z,97018.75
2022-09-12T03:55:25.253Z,97031.91
2022-09-12T04:00:19.960Z,97031.44
2022-09-12T04:05:14.903Z,97042.06
2022-09-12T04:10:09.773Z,97031.66
2022-09-12T04:15:03.119Z,97033.94
2022-09-12T04:19:56.412Z,97032.69
2022-09-12T04:24:50.976Z,97031.25
2022-09-12T04:29:44.299Z,97042.34
2022-09-12T04:34:37.579Z,97048.44
2022-09-12T04:39:32.798Z,97038.88
2022-09-12T04:44:27.435Z,97041.28
2022-09-12T04:49:20.825Z,97035.75
2022-09-12T04:54:17.857Z,97032.56
2022-09-12T04:59:14.317Z,97029.81
2022-09-12T05:04:10.952Z,97041.84
2022-09-12T05:09:07.559Z,97041.50
2022-09-12T05:14:01.318Z,97040.28
2022-09-12T05:18:54.867Z,97035.63
2022-09-12T05:23:54.102Z,97033.34
2022-09-12T05:28:48.398Z,97038.44
2022-09-12T05:33:44.202Z,97034.69
2022-09-12T05:38:38.553Z,97045.22
2022-09-12T05:43:33.429Z,97044.69
2022-09-12T05:48:26.740Z,97058.19
2022-09-12T05:53:20.567Z,97051.56
2022-09-12T05:58:13.790Z,97049.88
2022-09-12T06:03:08.392Z,97056.09
2022-09-12T06:08:01.619Z,97055.25
2022-09-12T06:12:54.818Z,97054.84
2022-09-12T06:17:51.457Z,97065.16
2022-09-12T06:22:48.018Z,97062.16
2022-09-12T06:27:41.282Z,97058.44
2022-09-12T06:32:34.879Z,97059.31
2022-09-12T06:37:28.521Z,97051.81
2022-09-12T06:42:23.283Z,97053.72
2022-09-12T06:47:16.512Z,97051.66
2022-09-12T06:52:09.734Z,97051.41
2022-09-12T06:57:03.130Z,97053.66
2022-09-12T07:02:03.181Z,97052.16
2022-09-12T07:06:56.674Z,97055.47
2022-09-12T07:11:49.992Z,97054.50
2022-09-12T07:16:44.216Z,97056.91
2022-09-12T07:21:40.865Z,97064.53
2022-09-12T07:26:34.197Z,97066.75
2022-09-12T07:31:29.271Z,97060.09
2022-09-12T07:36:25.737Z,97067.59
2022-09-12T07:41:23.319Z,97069.09
2022-09-12T07:46:16.726Z,97065.56
2022-09-12T07:51:13.289Z,97065.34
2022-09-12T07:56:10.368Z,97055.41
2022-09-12T08:01:06.249Z,97071.84
2022-09-12T08:06:05.940Z,97066.53
2022-09-12T08:10:59.936Z,97066.88
2022-09-12T08:15:53.206Z,97071.47
2022-09-12T08:20:48.452Z,97065.28
2022-09-12T08:25:41.679Z,97064.31
2022-09-12T08:30:35.268Z,97065.13
2022-09-12T08:35:28.595Z,97062.06
2022-09-12T08:40:23.203Z,97062.91
2022-09-12T08:45:26.163Z,97070.22
2022-09-12T08:50:23.263Z,97064.69
2022-09-12T08:55:33.230Z,97066.34
2022-09-12T09:00:38.239Z,97068.59
2022-09-12T09:05:48.981Z,97077.13
2022-09-12T09:10:53.133Z,97075.16
2022-09-12T09:16:05.826Z,97070.75
2022-09-12T09:21:06.539Z,97061.53
2022-09-12T09:26:08.234Z,97059.75
2022-09-12T09:31:01.735Z,97059.59
2022-09-12T09:36:08.688Z,97055.50
2022-09-12T09:41:40.944Z,97061.47
2022-09-12T09:46:35.138Z,97051.19
2022-09-12T09:51:34.447Z,97051.50
2022-09-12T09:56:36.211Z,97055.31
2022-09-12T10:01:33.465Z,97050.34
2022-09-12T10:06:34.460Z,97046.53
2022-09-12T10:11:33.593Z,97047.50
2022-09-12T10:16:29.834Z,97045.03
2022-09-12T10:21:33.440Z,97040.22
2022-09-12T10:26:28.984Z,97031.75
2022-09-12T10:31:30.253Z,97030.88
2022-09-12T10:36:27.264Z,97036.38
2022-09-12T10:41:21.866Z,97037.19
2022-09-12T10:46:30.627Z,97027.88
2022-09-12T10:51:29.956Z,97023.41
2022-09-12T10:56:28.019Z,97013.91
2022-09-12T11:01:41.432Z,97019.09
2022-09-12T11:06:52.763Z,97012.41
2022-09-12T11:12:04.766Z,97005.75
2022-09-12T11:17:14.426Z,97003.09
2022-09-12T11:22:42.069Z,97010.50
2022-09-12T11:27:56.180Z,97002.00
2022-09-12T11:33:25.334Z,96995.16
2022-09-12T11:39:03.496Z,96992.50
2022-09-12T11:44:10.957Z,96992.56
2022-09-12T11:49:20.800Z,96988.56
2022-09-12T11:54:25.914Z,96983.66
2022-09-12T11:59:37.012Z,96975.59
2022-09-12T12:04:43.239Z,96971.34
2022-09-12T12:09:52.147Z,96972.81
2022-09-12T12:14:57.614Z,96974.72
2022-09-12T12:20:08.575Z,96964.53
2022-09-12T12:25:29.638Z,96959.09
2022-09-12T12:31:03.325Z,96955.47
2022-09-12T12:36:09.548Z,96958.81
2022-09-12T12:41:44.663Z,96940.09
2022-09-12T12:46:40.001Z,96934.31
2022-09-12T12:52:01.529Z,96936.38
2022-09-12T12:57:17.524Z,96931.25
2022-09-12T13:02:30.921Z,96922.81
2022-09-12T13:07:37.329Z,96914.47
2022-09-12T13:12:36.395Z,96906.81
2022-09-12T13:17:40.175Z,96898.38
2022-09-12T13:22:44.755Z,96894.22
2022-09-12T13:27:38.307Z,96892.47
2022-09-12T13:32:32.172Z,96881.81
2022-09-12T13:37:56.119Z,96873.06
2022-09-12T13:42:50.645Z,96871.56
2022-09-12T13:47:46.355Z,96867.47
2022-09-12T13:53:12.383Z,96867.84
2022-09-12T13:58:36.924Z,96870.81
2022-09-12T14:03:51.009Z,96865.47
2022-09-12T14:08:51.656Z,96850.81
2022-09-12T14:13:46.079Z,96848.50
2022-09-12T14:18:45.103Z,96851.41
2022-09-12T14:23:43.727Z,96850.13
2022-09-12T14:28:47.380Z,96836.44
2022-09-12T14:33:51.058Z,96831.84
2022-09-12T14:38:48.070Z,96840.34
2022-09-12T14:43:54.182Z,96838.31
2022-09-12T14:48:54.265Z,96832.34
2022-09-12T14:53:50.483Z,96840.63
2022-09-12T14:58:45.099Z,96831.47
2022-09-12T15:03:53.365Z,96828.72
2022-09-12T15:08:47.250Z,96830.66
2022-09-12T15:13:43.168Z,96824.34
2022-09-12T15:18:38.143Z,96824.13
2022-09-12T15:23:41.320Z,96817.78
2022-09-12T15:28:51.942Z,96813.84
2022-09-12T15:33:46.682Z,96810.06
2022-09-12T15:38:40.035Z,96810.44
2022-09-12T15:43:33.271Z,96803.63
2022-09-12T15:48:26.493Z,96795.19
2022-09-12T15:53:21.296Z,96802.19
2022-09-12T15:58:14.613Z,96802.47
2022-09-12T16:03:08.439Z,96798.13
2022-09-12T16:08:01.827Z,96796.66
2022-09-12T16:12:56.792Z,96799.88
2022-09-12T16:17:50.719Z,96790.53
2022-09-12T16:22:44.574Z,96788.56
2022-09-12T16:27:38.746Z,96788.44
2022-09-12T16:32:33.524Z,96791.34
2022-09-12T16:37:26.894Z,96780.56
2022-09-12T16:42:20.253Z,96780.28
2022-09-12T16:47:14.112Z,96774.41
2022-09-12T16:52:09.312Z,96774.97
2022-09-12T16:57:02.651Z,96770.03
2022-09-12T17:01:55.997Z,96768.78
2022-09-12T17:06:49.491Z,96778.13
2022-09-12T17:11:44.711Z,96778.25
2022-09-12T17:16:41.177Z,96776.22
2022-09-12T17:21:35.354Z,96773.47
2022-09-12T17:26:29.015Z,96787.16
2022-09-12T17:31:23.710Z,96775.41
2022-09-12T17:36:18.973Z,96790.69
2022-09-12T17:41:17.515Z,96781.06
2022-09-12T17:46:11.187Z,96783.59
2022-09-12T17:51:10.765Z,96789.88
2022-09-12T17:56:05.592Z,96799.88
2022-09-12T18:01:20.782Z,96800.69
2022-09-12T18:06:16.033Z,96797.19
2022-09-12T18:11:10.014Z,96798.53
2022-09-12T18:16:09.690Z,96798.53
2022-09-12T18:21:05.695Z,96809.50
2022-09-12T18:26:02.186Z,96801.84
2022-09-12T18:30:58.602Z,96808.50
2022-09-12T18:35:52.112Z,96801.69
2022-09-12T18:40:45.619Z,96799.19
2022-09-12T18:45:40.314Z,96802.66
2022-09-12T18:50:33.819Z,96800.13
2022-09-12T18:55:27.147Z,96804.41
2022-09-12T19:00:20.554Z,96791.63
2022-09-12T19:05:15.212Z,96800.09
2022-09-12T19:10:10.043Z,96801.84
2022-09-12T19:15:03.981Z,96800.31
2022-09-12T19:19:57.259Z,96796.81
2022-09-12T19:24:51.924Z,96797.66
2022-09-12T19:29:45.171Z,96801.13
2022-09-12T19:34:38.428Z,96803.47
2022-09-12T19:39:31.800Z,96799.97
2022-09-12T19:44:27.614Z,96796.66
2022-09-12T19:49:20.951Z,96785.34
2022-09-12T19:54:14.232Z,96785.00
2022-09-12T19:59:07.521Z,96786.03
2022-09-12T20:04:02.771Z,96783.22
2022-09-12T20:08:57.081Z,96801.47
2022-09-12T20:13:50.983Z,96795.16
2022-09-12T20:18:45.124Z,96803.63
2022-09-12T20:23:40.864Z,96797.34
2022-09-12T20:28:34.444Z,96801.63
2022-09-12T20:33:27.696Z,96799.22
2022-09-12T20:38:20.889Z,96809.75
2022-09-12T20:43:15.454Z,96812.47
2022-09-12T20:48:08.712Z,96801.75
2022-09-12T20:53:02.022Z,96803.56
2022-09-12T20:58:14.681Z,96809.22
2022-09-12T21:03:08.339Z,96806.59
2022-09-12T21:08:02.280Z,96814.09
2022-09-12T21:12:55.560Z,96805.91
2022-09-12T21:17:50.266Z,96802.81
2022-09-12T21:22:43.483Z,96792.13
2022-09-12T21:27:36.704Z,96791.13
2022-09-12T21:32:34.528Z,96783.88
2022-09-12T21:37:29.360Z,96789.50
2022-09-12T21:42:22.853Z,96778.53
2022-09-12T21:47:16.071Z,96778.38
2022-09-12T21:52:09.847Z,96793.84
2022-09-12T21:57:04.735Z,96795.00
2022-09-12T22:01:59.069Z,96786.09
2022-09-12T22:06:53.609Z,96779.91
2022-09-12T22:11:47.106Z,96768.44
2022-09-12T22:16:41.741Z,96773.56
2022-09-12T22:21:55.086Z,96778.53
2022-09-12T22:26:48.292Z,96770.66
2022-09-12T22:31:42.965Z,96783.38
2022-09-12T22:36:38.934Z,96775.34
2022-09-12T22:41:32.842Z,96764.50
2022-09-12T22:46:26.911Z,96744.72
2022-09-12T22:51:21.520Z,96748.91
2022-09-12T22:56:14.830Z,96756.56
2022-09-12T23:01:10.012Z,96747.00
2022-09-12T23:06:03.577Z,96752.53
2022-09-12T23:11:04.583Z,96751.88
2022-09-12T23:16:01.542Z,96755.03
2022-09-12T23:21:00.216Z,96766.94
2022-09-12T23:26:05.708Z,96769.66
2022-09-12T23:31:00.216Z,96775.00
2022-09-12T23:35:53.603Z,96766.78
2022-09-12T23:40:46.961Z,96750.03
2022-09-12T23:45:41.651Z,96739.13
2022-09-12T23:50:34.893Z,96737.63
2022-09-12T23:55:28.194Z,96735.84
